TimeCST,TemperatureF,Dew PointF,Humidity,Sea Level PressureIn,VisibilityMPH,Wind Direction,Wind SpeedMPH,Gust SpeedMPH,PrecipitationIn,Events,Conditions,WindDirDegrees,DateUTC
12:15 AM,34.7,31.1,87,30.39,7.0,North,-9999.0,-,N/A,,Clear,0,2012-11-18 06:15:00
12:35 AM,34.7,31.3,87,30.39,7.0,North,-9999.0,-,N/A,,Clear,0,2012-11-18 06:35:00
12:55 AM,35.6,31.1,84,30.39,7.0,North,-9999.0,-,N/A,,Clear,0,2012-11-18 06:55:00
1:15 AM,34.7,30.9,86,30.39,7.0,North,-9999.0,-,N/A,,Clear,0,2012-11-18 07:15:00
1:35 AM,34.9,30.9,85,30.39,10.0,North,-9999.0,-,N/A,,Clear,0,2012-11-18 07:35:00
1:55 AM,35.6,31.1,84,30.38,10.0,North,-9999.0,-,N/A,,Clear,0,2012-11-18 07:55:00
2:15 AM,35.8,31.5,84,30.38,10.0,North,-9999.0,-,N/A,,Clear,0,2012-11-18 08:15:00
2:35 AM,35.6,31.5,85,30.38,10.0,North,-9999.0,-,N/A,,Clear,0,2012-11-18 08:35:00
2:55 AM,35.8,31.6,85,30.38,10.0,North,-9999.0,-,N/A,,Clear,0,2012-11-18 08:55:00
3:15 AM,35.4,31.5,85,30.37,10.0,North,-9999.0,-,N/A,,Clear,0,2012-11-18 09:15:00
3:35 AM,33.4,30.7,90,30.37,7.0,North,-9999.0,-,N/A,,Clear,0,2012-11-18 09:35:00
3:55 AM,33.1,30.6,90,30.37,7.0,North,-9999.0,-,N/A,,Clear,0,2012-11-18 09:55:00
4:15 AM,33.3,30.6,90,30.37,7.0,North,-9999.0,-,N/A,,Clear,0,2012-11-18 10:15:00
4:35 AM,34.0,30.9,89,30.38,7.0,North,-9999.0,-,N/A,,Clear,0,2012-11-18 10:35:00
4:55 AM,34.2,30.7,87,30.38,7.0,North,-9999.0,-,N/A,,Clear,0,2012-11-18 10:55:00
5:15 AM,33.3,30.6,90,30.38,7.0,North,-9999.0,-,N/A,,Clear,0,2012-11-18 11:15:00
5:35 AM,33.8,30.7,89,30.37,7.0,North,-9999.0,-,N/A,,Clear,0,2012-11-18 11:35:00
5:55 AM,33.1,30.2,89,30.37,7.0,North,-9999.0,-,N/A,,Clear,0,2012-11-18 11:55:00
6:15 AM,32.7,30.2,90,30.37,7.0,North,-9999.0,-,N/A,,Clear,0,2012-11-18 12:15:00
6:35 AM,32.9,30.0,89,30.36,7.0,North,-9999.0,-,N/A,,Clear,0,2012-11-18 12:35:00
6:55 AM,32.9,30.2,90,30.37,7.0,North,-9999.0,-,N/A,,Clear,0,2012-11-18 12:55:00
7:15 AM,33.1,30.2,89,30.36,7.0,North,-9999.0,-,N/A,,Clear,0,2012-11-18 13:15:00
7:35 AM,35.1,31.1,85,30.36,7.0,North,-9999.0,-,N/A,,Clear,0,2012-11-18 13:35:00
7:55 AM,37.4,32.0,81,30.36,7.0,North,-9999.0,-,N/A,,Clear,0,2012-11-18 13:55:00
8:15 AM,39.4,33.1,78,30.37,7.0,North,-9999.0,-,N/A,,Clear,0,2012-11-18 14:15:00
8:35 AM,41.9,33.8,73,30.37,10.0,North,-9999.0,-,N/A,,Clear,0,2012-11-18 14:35:00
8:55 AM,42.3,33.8,72,30.37,10.0,North,-9999.0,-,N/A,,Clear,0,2012-11-18 14:55:00
9:15 AM,43.5,34.7,71,30.37,10.0,North,-9999.0,-,N/A,,Clear,0,2012-11-18 15:15:00
9:35 AM,46.0,35.6,67,30.37,10.0,North,-9999.0,-,N/A,,Clear,0,2012-11-18 15:35:00
9:55 AM,47.5,35.2,63,30.37,10.0,North,-9999.0,-,N/A,,Clear,0,2012-11-18 15:55:00
10:15 AM,50.0,35.1,57,30.36,10.0,North,-9999.0,-,N/A,,Clear,0,2012-11-18 16:15:00
10:35 AM,51.8,34.7,52,30.36,10.0,North,-9999.0,-,N/A,,Clear,0,2012-11-18 16:35:00
10:55 AM,53.2,33.6,47,30.36,10.0,North,-9999.0,-,N/A,,Clear,0,2012-11-18 16:55:00
11:15 AM,54.1,33.4,46,30.35,10.0,North,-9999.0,-,N/A,,Clear,0,2012-11-18 17:15:00
11:35 AM,55.6,32.2,41,30.34,10.0,North,-9999.0,-,N/A,,Clear,0,2012-11-18 17:35:00
11:55 AM,56.5,31.8,39,30.33,10.0,North,-9999.0,-,N/A,,Clear,0,2012-11-18 17:55:00
12:15 PM,57.4,31.1,37,30.32,10.0,North,-9999.0,-,N/A,,Clear,0,2012-11-18 18:15:00
12:35 PM,56.5,31.3,38,30.32,10.0,North,-9999.0,-,N/A,,Clear,0,2012-11-18 18:35:00
12:55 PM,58.3,30.6,35,30.31,10.0,North,-9999.0,-,N/A,,Clear,0,2012-11-18 18:55:00
1:15 PM,57.9,30.9,36,30.31,10.0,North,-9999.0,-,N/A,,Clear,0,2012-11-18 19:15:00
1:35 PM,58.3,29.8,34,30.30,10.0,North,-9999.0,-,N/A,,Clear,0,2012-11-18 19:35:00
1:55 PM,57.9,30.4,35,30.29,10.0,North,-9999.0,-,N/A,,Clear,0,2012-11-18 19:55:00
2:15 PM,59.0,30.0,33,30.29,10.0,North,-9999.0,-,N/A,,Clear,0,2012-11-18 20:15:00
2:35 PM,58.3,30.7,35,30.28,10.0,North,-9999.0,-,N/A,,Clear,0,2012-11-18 20:35:00
2:55 PM,57.4,31.3,37,30.28,10.0,North,-9999.0,-,N/A,,Clear,0,2012-11-18 20:55:00
3:15 PM,57.0,30.9,37,30.28,10.0,North,-9999.0,-,N/A,,Clear,0,2012-11-18 21:15:00
3:35 PM,55.6,32.0,41,30.28,10.0,North,-9999.0,-,N/A,,Clear,0,2012-11-18 21:35:00
3:55 PM,54.1,32.7,44,30.28,10.0,North,-9999.0,-,N/A,,Clear,0,2012-11-18 21:55:00
4:15 PM,53.2,33.1,46,30.29,10.0,North,-9999.0,-,N/A,,Clear,0,2012-11-18 22:15:00
4:35 PM,51.8,33.1,49,30.30,10.0,North,-9999.0,-,N/A,,Clear,0,2012-11-18 22:35:00
4:55 PM,50.4,33.1,52,30.29,10.0,North,-9999.0,-,N/A,,Clear,0,2012-11-18 22:55:00
5:15 PM,50.0,32.9,52,30.28,10.0,North,-9999.0,-,N/A,,Clear,0,2012-11-18 23:15:00
5:35 PM,49.1,32.9,54,30.29,10.0,North,-9999.0,-,N/A,,Clear,0,2012-11-18 23:35:00
5:55 PM,48.2,32.4,54,30.30,10.0,North,-9999.0,-,N/A,,Clear,0,2012-11-18 23:55:00
6:15 PM,48.0,32.4,55,30.30,10.0,North,-9999.0,-,N/A,,Clear,0,2012-11-19 00:15:00
6:35 PM,47.7,32.4,55,30.30,10.0,North,-9999.0,-,N/A,,Clear,0,2012-11-19 00:35:00
6:55 PM,47.5,32.4,56,30.30,10.0,North,-9999.0,-,N/A,,Clear,0,2012-11-19 00:55:00
7:15 PM,47.3,32.5,57,30.30,10.0,North,-9999.0,-,N/A,,Clear,0,2012-11-19 01:15:00
7:35 PM,46.8,32.9,59,30.30,10.0,North,-9999.0,-,N/A,,Clear,0,2012-11-19 01:35:00
7:55 PM,45.7,32.9,61,30.30,10.0,North,-9999.0,-,N/A,,Clear,0,2012-11-19 01:55:00
8:15 PM,45.9,33.3,61,30.29,10.0,North,-9999.0,-,N/A,,Clear,0,2012-11-19 02:15:00
8:35 PM,46.2,33.8,62,30.29,10.0,North,-9999.0,-,N/A,,Clear,0,2012-11-19 02:35:00
8:55 PM,46.8,33.8,61,30.29,10.0,North,-9999.0,-,N/A,,Clear,0,2012-11-19 02:55:00
9:15 PM,47.3,34.0,60,30.29,10.0,North,-9999.0,-,N/A,,Clear,0,2012-11-19 03:15:00
9:35 PM,47.3,33.8,59,30.28,10.0,North,-9999.0,-,N/A,,Clear,0,2012-11-19 03:35:00
9:55 PM,47.1,34.0,60,30.28,10.0,North,-9999.0,-,N/A,,Clear,0,2012-11-19 03:55:00
10:15 PM,46.4,33.8,62,30.27,10.0,North,-9999.0,-,N/A,,Clear,0,2012-11-19 04:15:00
10:35 PM,45.5,34.3,65,30.28,10.0,North,-9999.0,-,N/A,,Clear,0,2012-11-19 04:35:00
10:55 PM,44.6,34.3,67,30.27,10.0,North,-9999.0,-,N/A,,Clear,0,2012-11-19 04:55:00
11:15 PM,44.8,34.7,68,30.27,10.0,North,-9999.0,-,N/A,,Clear,0,2012-11-19 05:15:00
11:35 PM,44.6,35.6,71,30.27,10.0,North,-9999.0,-,N/A,,Clear,0,2012-11-19 05:35:00
11:55 PM,45.0,34.9,68,30.26,10.0,North,-9999.0,-,N/A,,Clear,0,2012-11-19 05:55:00